Randolph, Minnesota
Current Conditions -  °F | °C
As of 10:13 AM on Wednesday 22 Oct 2014 (Local Time) from KSYN Reporting Station
Broken Clouds Broken Clouds  
Wind Chill: 43°   Ceiling: 6000
Heat Index: 48°   Visibility: 10mi
Dew Point: 38°   Wind: 13mph
Humidity: 69%   Direction: 160°SSE
Pressure: 30.18"   Gusts: 22mph
Location:  44.53°N, 93.02°W
Report Text: KSYN 221513Z AUTO 16011G19KT 10SM BKN060 09/04 A3018 RMK AO2 T00900035
Loading
Personal Weather Stations






























Interactive Weather Map
Tropical Storm Tracking
New forecast layout! Learn more

10-Day Weather Forecast

Advertisements
Track Severe Weather on mobile